< Typhoon 196406 1964 Season Typhoon 196408 >
Typhoon 196407 (DORIS)
General InformationTrack Information on Google Maps || Disaster Info.ResourceGoogle EarthGE AnimationAtom FeedGeoJSON
Detalied Best Track (Time Zone = UTC)
Year Month Day Hour Lat. Long. Pressure (hPa) Wind (kt) Class Image Chart
1964 7 11 00 10.0 144.0 1008 0 2 -- Chart
1964 7 11 06 10.2 142.8 1004 0 2 -- Chart
1964 7 11 12 10.5 141.5 1004 0 9 -- Chart
1964 7 11 18 10.6 140.7 1002 0 9 -- Chart
1964 7 12 00 11.6 139.7 1000 0 9 -- Chart
1964 7 12 06 12.9 138.2 1000 0 9 -- Chart
1964 7 12 12 14.3 135.9 1000 0 9 -- Chart
1964 7 12 18 15.3 134.1 998 0 9 -- Chart
1964 7 13 00 16.1 132.1 998 0 9 -- Chart
1964 7 13 06 17.0 131.0 996 0 9 -- Chart
1964 7 13 12 18.3 130.1 996 0 9 -- Chart
1964 7 13 18 19.2 128.8 996 0 9 -- Chart
1964 7 14 00 20.2 127.4 996 0 9 -- Chart
1964 7 14 06 21.0 126.5 998 0 9 -- Chart
1964 7 14 12 21.6 125.8 996 0 9 -- Chart
1964 7 14 18 22.2 125.0 996 0 9 -- Chart
1964 7 15 00 23.0 124.5 995 0 9 -- Chart
1964 7 15 06 24.4 124.7 998 0 9 -- Chart
1964 7 15 12 25.4 124.7 998 0 9 -- Chart
1964 7 15 18 26.5 124.5 998 0 9 -- Chart
1964 7 16 00 27.5 124.3 1000 0 9 -- Chart
1964 7 16 06 28.5 124.2 1000 0 9 -- Chart
1964 7 16 12 29.6 124.6 1002 0 2 -- Chart
1964 7 16 18 30.6 125.0 1002 0 2 -- Chart
1964 7 17 00 31.7 125.7 1002 0 2 -- Chart
1964 7 17 06 33.0 127.0 1000 0 2 -- Chart
Japan Meteorological Agency Best Track Data | Correction Date : 1989-06-01
< Typhoon 196406 1964 Season Typhoon 196408 >

Help